sensor_id;sensor_type;location;lat;lon;timestamp;temperature;humidity
46336;DHT22;31365;48.858;8.530;2023-05-29T00:01:34;14.30;99.90
46336;DHT22;31365;48.858;8.530;2023-05-29T00:04:04;14.20;99.90
46336;DHT22;31365;48.858;8.530;2023-05-29T00:06:34;14.10;99.90
46336;DHT22;31365;48.858;8.530;2023-05-29T00:09:03;14.00;99.90
46336;DHT22;31365;48.858;8.530;2023-05-29T00:11:31;14.00;99.90
46336;DHT22;31365;48.858;8.530;2023-05-29T00:14:00;13.90;99.90
46336;DHT22;31365;48.858;8.530;2023-05-29T00:16:29;13.80;99.90
46336;DHT22;31365;48.858;8.530;2023-05-29T00:18:57;13.80;99.90
46336;DHT22;31365;48.858;8.530;2023-05-29T00:21:26;13.80;99.90
46336;DHT22;31365;48.858;8.530;2023-05-29T00:23:55;13.70;99.90
46336;DHT22;31365;48.858;8.530;2023-05-29T00:26:23;13.70;99.90
46336;DHT22;31365;48.858;8.530;2023-05-29T00:28:54;13.70;99.90
46336;DHT22;31365;48.858;8.530;2023-05-29T00:31:22;13.70;99.90
46336;DHT22;31365;48.858;8.530;2023-05-29T00:33:51;13.60;99.90
46336;DHT22;31365;48.858;8.530;2023-05-29T00:36:19;13.60;99.90
46336;DHT22;31365;48.858;8.530;2023-05-29T00:38:48;13.60;99.90
46336;DHT22;31365;48.858;8.530;2023-05-29T00:41:18;13.50;99.90
46336;DHT22;31365;48.858;8.530;2023-05-29T00:43:46;13.50;99.90
46336;DHT22;31365;48.858;8.530;2023-05-29T00:46:16;13.50;99.90
46336;DHT22;31365;48.858;8.530;2023-05-29T00:48:44;13.50;99.90
46336;DHT22;31365;48.858;8.530;2023-05-29T00:51:13;13.40;99.90
46336;DHT22;31365;48.858;8.530;2023-05-29T00:53:43;13.40;99.90
46336;DHT22;31365;48.858;8.530;2023-05-29T00:56:13;13.40;99.90
46336;DHT22;31365;48.858;8.530;2023-05-29T00:58:43;13.40;99.90
46336;DHT22;31365;48.858;8.530;2023-05-29T01:01:12;13.30;99.90
46336;DHT22;31365;48.858;8.530;2023-05-29T01:03:41;13.30;99.90
46336;DHT22;31365;48.858;8.530;2023-05-29T01:06:10;13.20;99.90
46336;DHT22;31365;48.858;8.530;2023-05-29T01:08:39;13.20;99.90
46336;DHT22;31365;48.858;8.530;2023-05-29T01:11:27;13.20;99.90
46336;DHT22;31365;48.858;8.530;2023-05-29T01:14:11;13.10;99.90
46336;DHT22;31365;48.858;8.530;2023-05-29T01:16:50;13.10;99.90
46336;DHT22;31365;48.858;8.530;2023-05-29T01:19:28;13.10;99.90
46336;DHT22;31365;48.858;8.530;2023-05-29T01:22:12;13.10;99.90
46336;DHT22;31365;48.858;8.530;2023-05-29T01:24:56;13.10;99.90
46336;DHT22;31365;48.858;8.530;2023-05-29T01:27:34;13.10;99.90
46336;DHT22;31365;48.858;8.530;2023-05-29T01:30:08;13.10;99.90
46336;DHT22;31365;48.858;8.530;2023-05-29T01:32:39;13.00;99.90
46336;DHT22;31365;48.858;8.530;2023-05-29T01:35:12;13.00;99.90
46336;DHT22;31365;48.858;8.530;2023-05-29T01:37:41;12.90;99.90
46336;DHT22;31365;48.858;8.530;2023-05-29T01:40:10;13.00;99.90
46336;DHT22;31365;48.858;8.530;2023-05-29T01:42:40;12.90;99.90
46336;DHT22;31365;48.858;8.530;2023-05-29T01:45:09;12.90;99.90
46336;DHT22;31365;48.858;8.530;2023-05-29T01:47:38;12.80;99.90
46336;DHT22;31365;48.858;8.530;2023-05-29T01:50:08;12.70;99.90
46336;DHT22;31365;48.858;8.530;2023-05-29T01:52:38;12.70;99.90
46336;DHT22;31365;48.858;8.530;2023-05-29T01:55:08;12.70;99.90
46336;DHT22;31365;48.858;8.530;2023-05-29T01:57:37;12.70;99.90
46336;DHT22;31365;48.858;8.530;2023-05-29T02:00:08;12.60;99.90
46336;DHT22;31365;48.858;8.530;2023-05-29T02:02:41;12.50;99.90
46336;DHT22;31365;48.858;8.530;2023-05-29T02:05:09;12.50;99.90
46336;DHT22;31365;48.858;8.530;2023-05-29T02:07:38;12.50;99.90
46336;DHT22;31365;48.858;8.530;2023-05-29T02:10:06;12.50;99.90
46336;DHT22;31365;48.858;8.530;2023-05-29T02:12:34;12.50;99.90
46336;DHT22;31365;48.858;8.530;2023-05-29T02:15:03;12.40;99.90
46336;DHT22;31365;48.858;8.530;2023-05-29T02:17:33;12.40;99.90
46336;DHT22;31365;48.858;8.530;2023-05-29T02:20:02;12.40;99.90
46336;DHT22;31365;48.858;8.530;2023-05-29T02:22:31;12.50;99.90
46336;DHT22;31365;48.858;8.530;2023-05-29T02:24:59;12.40;99.90
46336;DHT22;31365;48.858;8.530;2023-05-29T02:27:27;12.40;99.90
46336;DHT22;31365;48.858;8.530;2023-05-29T02:29:56;12.40;99.90
46336;DHT22;31365;48.858;8.530;2023-05-29T02:32:24;12.40;99.90
46336;DHT22;31365;48.858;8.530;2023-05-29T02:34:55;12.30;99.90
46336;DHT22;31365;48.858;8.530;2023-05-29T02:37:23;12.20;99.90
46336;DHT22;31365;48.858;8.530;2023-05-29T02:39:52;12.20;99.90
46336;DHT22;31365;48.858;8.530;2023-05-29T02:42:20;12.20;99.90
46336;DHT22;31365;48.858;8.530;2023-05-29T02:44:49;12.20;99.90
46336;DHT22;31365;48.858;8.530;2023-05-29T02:47:17;12.10;99.90
46336;DHT22;31365;48.858;8.530;2023-05-29T02:49:45;12.20;99.90
46336;DHT22;31365;48.858;8.530;2023-05-29T02:52:15;12.20;99.90
46336;DHT22;31365;48.858;8.530;2023-05-29T02:54:44;12.10;99.90
46336;DHT22;31365;48.858;8.530;2023-05-29T02:57:12;12.10;99.90
46336;DHT22;31365;48.858;8.530;2023-05-29T02:59:40;12.00;99.90
46336;DHT22;31365;48.858;8.530;2023-05-29T03:02:08;11.90;99.90
46336;DHT22;31365;48.858;8.530;2023-05-29T03:04:37;11.90;99.90
46336;DHT22;31365;48.858;8.530;2023-05-29T03:07:06;11.90;99.90
46336;DHT22;31365;48.858;8.530;2023-05-29T03:09:38;11.90;99.90
46336;DHT22;31365;48.858;8.530;2023-05-29T03:12:08;11.90;99.90
46336;DHT22;31365;48.858;8.530;2023-05-29T03:14:36;11.90;99.90
46336;DHT22;31365;48.858;8.530;2023-05-29T03:17:09;12.00;99.90
46336;DHT22;31365;48.858;8.530;2023-05-29T03:19:38;11.90;99.90
46336;DHT22;31365;48.858;8.530;2023-05-29T03:22:06;11.90;99.90
46336;DHT22;31365;48.858;8.530;2023-05-29T03:24:35;11.90;99.90
46336;DHT22;31365;48.858;8.530;2023-05-29T03:27:06;11.90;99.90
46336;DHT22;31365;48.858;8.530;2023-05-29T03:29:35;11.80;99.90
46336;DHT22;31365;48.858;8.530;2023-05-29T03:32:05;11.80;99.90
46336;DHT22;31365;48.858;8.530;2023-05-29T03:34:34;11.70;99.90
46336;DHT22;31365;48.858;8.530;2023-05-29T03:37:04;11.70;99.90
46336;DHT22;31365;48.858;8.530;2023-05-29T03:39:32;11.60;99.90
46336;DHT22;31365;48.858;8.530;2023-05-29T03:42:02;11.60;99.90
46336;DHT22;31365;48.858;8.530;2023-05-29T03:44:33;11.60;99.90
46336;DHT22;31365;48.858;8.530;2023-05-29T03:47:03;11.60;99.90
46336;DHT22;31365;48.858;8.530;2023-05-29T03:49:34;11.60;99.90
46336;DHT22;31365;48.858;8.530;2023-05-29T03:52:03;11.60;99.90
46336;DHT22;31365;48.858;8.530;2023-05-29T03:54:32;11.60;99.90
46336;DHT22;31365;48.858;8.530;2023-05-29T03:57:02;11.60;99.90
46336;DHT22;31365;48.858;8.530;2023-05-29T03:59:33;11.60;99.90
46336;DHT22;31365;48.858;8.530;2023-05-29T04:02:01;11.60;99.90
46336;DHT22;31365;48.858;8.530;2023-05-29T04:04:30;11.60;99.90
46336;DHT22;31365;48.858;8.530;2023-05-29T04:06:59;11.60;99.90
46336;DHT22;31365;48.858;8.530;2023-05-29T04:09:27;11.50;99.90
46336;DHT22;31365;48.858;8.530;2023-05-29T04:11:56;11.50;99.90
46336;DHT22;31365;48.858;8.530;2023-05-29T04:14:24;11.60;99.90
46336;DHT22;31365;48.858;8.530;2023-05-29T04:16:54;11.50;99.90
46336;DHT22;31365;48.858;8.530;2023-05-29T04:19:23;11.50;99.90
46336;DHT22;31365;48.858;8.530;2023-05-29T04:21:51;11.60;99.90
46336;DHT22;31365;48.858;8.530;2023-05-29T04:24:19;11.60;99.90
46336;DHT22;31365;48.858;8.530;2023-05-29T04:26:48;11.70;99.90
46336;DHT22;31365;48.858;8.530;2023-05-29T04:29:19;11.80;99.90
46336;DHT22;31365;48.858;8.530;2023-05-29T04:31:48;11.80;99.90
46336;DHT22;31365;48.858;8.530;2023-05-29T04:34:19;11.90;99.90
46336;DHT22;31365;48.858;8.530;2023-05-29T04:36:48;12.00;99.90
46336;DHT22;31365;48.858;8.530;2023-05-29T04:39:16;12.00;99.90
46336;DHT22;31365;48.858;8.530;2023-05-29T04:41:44;12.10;99.90
46336;DHT22;31365;48.858;8.530;2023-05-29T04:44:17;12.00;99.90
46336;DHT22;31365;48.858;8.530;2023-05-29T04:46:50;12.10;99.90
46336;DHT22;31365;48.858;8.530;2023-05-29T04:49:21;12.10;99.90
46336;DHT22;31365;48.858;8.530;2023-05-29T04:51:49;12.10;99.90
46336;DHT22;31365;48.858;8.530;2023-05-29T04:54:22;12.10;99.90
46336;DHT22;31365;48.858;8.530;2023-05-29T04:56:53;12.10;99.90
46336;DHT22;31365;48.858;8.530;2023-05-29T04:59:25;12.30;99.90
46336;DHT22;31365;48.858;8.530;2023-05-29T05:01:53;12.30;99.90
46336;DHT22;31365;48.858;8.530;2023-05-29T05:04:24;12.40;99.90
46336;DHT22;31365;48.858;8.530;2023-05-29T05:06:52;12.60;99.90
46336;DHT22;31365;48.858;8.530;2023-05-29T05:09:20;12.60;99.90
46336;DHT22;31365;48.858;8.530;2023-05-29T05:11:49;12.70;99.90
46336;DHT22;31365;48.858;8.530;2023-05-29T05:14:17;12.90;99.90
46336;DHT22;31365;48.858;8.530;2023-05-29T05:16:46;13.00;99.90
46336;DHT22;31365;48.858;8.530;2023-05-29T05:19:16;13.20;99.90
46336;DHT22;31365;48.858;8.530;2023-05-29T05:21:45;13.40;99.90
46336;DHT22;31365;48.858;8.530;2023-05-29T05:24:14;13.50;99.90
46336;DHT22;31365;48.858;8.530;2023-05-29T05:26:42;13.60;99.90
46336;DHT22;31365;48.858;8.530;2023-05-29T05:29:10;13.80;99.90
46336;DHT22;31365;48.858;8.530;2023-05-29T05:31:39;13.90;99.90
46336;DHT22;31365;48.858;8.530;2023-05-29T05:34:08;14.00;99.90
46336;DHT22;31365;48.858;8.530;2023-05-29T05:36:36;14.10;99.90
46336;DHT22;31365;48.858;8.530;2023-05-29T05:39:11;14.20;99.90
46336;DHT22;31365;48.858;8.530;2023-05-29T05:41:42;14.50;99.90
46336;DHT22;31365;48.858;8.530;2023-05-29T05:44:14;14.70;99.90
46336;DHT22;31365;48.858;8.530;2023-05-29T05:46:49;14.90;99.90
46336;DHT22;31365;48.858;8.530;2023-05-29T05:49:17;15.00;99.90
46336;DHT22;31365;48.858;8.530;2023-05-29T05:51:46;15.10;99.90
46336;DHT22;31365;48.858;8.530;2023-05-29T05:54:18;15.10;99.90
46336;DHT22;31365;48.858;8.530;2023-05-29T05:56:46;15.20;99.90
46336;DHT22;31365;48.858;8.530;2023-05-29T05:59:17;15.20;99.90
46336;DHT22;31365;48.858;8.530;2023-05-29T06:01:45;15.20;99.90
46336;DHT22;31365;48.858;8.530;2023-05-29T06:04:14;15.30;99.90
46336;DHT22;31365;48.858;8.530;2023-05-29T06:06:42;15.40;99.90
46336;DHT22;31365;48.858;8.530;2023-05-29T06:09:10;15.50;99.90
46336;DHT22;31365;48.858;8.530;2023-05-29T06:11:40;15.60;99.90
46336;DHT22;31365;48.858;8.530;2023-05-29T06:14:08;15.70;99.90
46336;DHT22;31365;48.858;8.530;2023-05-29T06:16:37;15.70;99.90
46336;DHT22;31365;48.858;8.530;2023-05-29T06:19:05;15.80;99.90
46336;DHT22;31365;48.858;8.530;2023-05-29T06:21:45;16.00;99.90
46336;DHT22;31365;48.858;8.530;2023-05-29T06:24:14;16.10;99.90
46336;DHT22;31365;48.858;8.530;2023-05-29T06:26:45;16.20;99.90
46336;DHT22;31365;48.858;8.530;2023-05-29T06:29:15;16.20;99.90
46336;DHT22;31365;48.858;8.530;2023-05-29T06:31:44;16.30;99.90
46336;DHT22;31365;48.858;8.530;2023-05-29T06:34:12;16.40;99.90
46336;DHT22;31365;48.858;8.530;2023-05-29T06:36:41;16.40;99.90
46336;DHT22;31365;48.858;8.530;2023-05-29T06:39:11;16.50;99.90
46336;DHT22;31365;48.858;8.530;2023-05-29T06:41:39;16.60;99.90
46336;DHT22;31365;48.858;8.530;2023-05-29T06:44:08;16.50;99.90
46336;DHT22;31365;48.858;8.530;2023-05-29T06:46:39;16.50;99.90
46336;DHT22;31365;48.858;8.530;2023-05-29T06:49:07;16.50;99.90
46336;DHT22;31365;48.858;8.530;2023-05-29T06:51:35;16.50;99.90
46336;DHT22;31365;48.858;8.530;2023-05-29T06:54:19;16.50;99.90
46336;DHT22;31365;48.858;8.530;2023-05-29T06:56:47;16.50;99.90
46336;DHT22;31365;48.858;8.530;2023-05-29T06:59:33;16.60;99.90
46336;DHT22;31365;48.858;8.530;2023-05-29T07:02:02;16.60;99.90
46336;DHT22;31365;48.858;8.530;2023-05-29T07:04:30;16.70;99.90
46336;DHT22;31365;48.858;8.530;2023-05-29T07:06:58;16.70;99.90
46336;DHT22;31365;48.858;8.530;2023-05-29T07:09:27;16.70;99.90
46336;DHT22;31365;48.858;8.530;2023-05-29T07:11:55;16.80;99.90
46336;DHT22;31365;48.858;8.530;2023-05-29T07:14:23;16.90;99.90
46336;DHT22;31365;48.858;8.530;2023-05-29T07:16:53;17.00;99.90
46336;DHT22;31365;48.858;8.530;2023-05-29T07:19:22;17.10;99.90
46336;DHT22;31365;48.858;8.530;2023-05-29T07:21:50;17.20;99.90
46336;DHT22;31365;48.858;8.530;2023-05-29T07:24:21;17.20;99.90
46336;DHT22;31365;48.858;8.530;2023-05-29T07:26:50;17.30;99.90
46336;DHT22;31365;48.858;8.530;2023-05-29T07:29:18;17.30;99.90
46336;DHT22;31365;48.858;8.530;2023-05-29T07:31:49;17.30;99.90
46336;DHT22;31365;48.858;8.530;2023-05-29T07:34:20;17.40;99.90
46336;DHT22;31365;48.858;8.530;2023-05-29T07:37:00;17.50;99.90
46336;DHT22;31365;48.858;8.530;2023-05-29T07:39:33;17.60;99.90
46336;DHT22;31365;48.858;8.530;2023-05-29T07:42:12;17.80;99.90
46336;DHT22;31365;48.858;8.530;2023-05-29T07:44:42;17.90;99.90
46336;DHT22;31365;48.858;8.530;2023-05-29T07:47:11;18.00;99.90
46336;DHT22;31365;48.858;8.530;2023-05-29T07:49:44;18.10;99.90
46336;DHT22;31365;48.858;8.530;2023-05-29T07:52:13;18.20;99.90
46336;DHT22;31365;48.858;8.530;2023-05-29T07:54:41;18.30;99.90
46336;DHT22;31365;48.858;8.530;2023-05-29T07:57:11;18.40;99.90
46336;DHT22;31365;48.858;8.530;2023-05-29T07:59:42;18.50;99.90
46336;DHT22;31365;48.858;8.530;2023-05-29T08:02:11;18.50;99.90
46336;DHT22;31365;48.858;8.530;2023-05-29T08:04:51;18.50;99.90
46336;DHT22;31365;48.858;8.530;2023-05-29T08:07:19;18.50;99.90
46336;DHT22;31365;48.858;8.530;2023-05-29T08:09:48;18.50;99.90
46336;DHT22;31365;48.858;8.530;2023-05-29T08:12:16;18.60;99.90
46336;DHT22;31365;48.858;8.530;2023-05-29T08:14:45;18.60;99.90
46336;DHT22;31365;48.858;8.530;2023-05-29T08:17:13;18.80;99.90
46336;DHT22;31365;48.858;8.530;2023-05-29T08:19:44;18.90;99.90
46336;DHT22;31365;48.858;8.530;2023-05-29T08:22:14;18.90;99.90
46336;DHT22;31365;48.858;8.530;2023-05-29T08:24:43;18.90;99.90
46336;DHT22;31365;48.858;8.530;2023-05-29T08:27:11;18.90;99.90
46336;DHT22;31365;48.858;8.530;2023-05-29T08:29:40;19.00;99.90
46336;DHT22;31365;48.858;8.530;2023-05-29T08:32:08;19.10;99.90
46336;DHT22;31365;48.858;8.530;2023-05-29T08:34:36;19.20;99.90
46336;DHT22;31365;48.858;8.530;2023-05-29T08:37:04;19.10;99.90
46336;DHT22;31365;48.858;8.530;2023-05-29T08:39:34;19.20;99.90
46336;DHT22;31365;48.858;8.530;2023-05-29T08:42:06;19.30;99.90
46336;DHT22;31365;48.858;8.530;2023-05-29T08:44:40;19.40;99.90
46336;DHT22;31365;48.858;8.530;2023-05-29T08:47:08;19.40;99.90
46336;DHT22;31365;48.858;8.530;2023-05-29T08:49:42;19.50;99.90
46336;DHT22;31365;48.858;8.530;2023-05-29T08:52:15;19.60;99.90
46336;DHT22;31365;48.858;8.530;2023-05-29T08:54:46;19.70;99.90
46336;DHT22;31365;48.858;8.530;2023-05-29T08:57:14;19.80;99.90
46336;DHT22;31365;48.858;8.530;2023-05-29T08:59:44;19.90;99.90
46336;DHT22;31365;48.858;8.530;2023-05-29T09:02:13;20.00;99.90
46336;DHT22;31365;48.858;8.530;2023-05-29T09:04:42;20.10;99.90
46336;DHT22;31365;48.858;8.530;2023-05-29T09:07:14;20.10;99.90
46336;DHT22;31365;48.858;8.530;2023-05-29T09:09:42;20.10;99.90
46336;DHT22;31365;48.858;8.530;2023-05-29T09:12:12;20.20;99.90
46336;DHT22;31365;48.858;8.530;2023-05-29T09:14:41;20.30;99.90
46336;DHT22;31365;48.858;8.530;2023-05-29T09:17:12;20.40;99.90
46336;DHT22;31365;48.858;8.530;2023-05-29T09:19:41;20.40;99.90
46336;DHT22;31365;48.858;8.530;2023-05-29T09:22:13;20.50;99.90
46336;DHT22;31365;48.858;8.530;2023-05-29T09:24:46;20.50;99.90
46336;DHT22;31365;48.858;8.530;2023-05-29T09:27:17;20.60;99.90
46336;DHT22;31365;48.858;8.530;2023-05-29T09:29:45;20.70;99.90
46336;DHT22;31365;48.858;8.530;2023-05-29T09:32:16;20.70;99.90
46336;DHT22;31365;48.858;8.530;2023-05-29T09:34:45;20.70;99.90
46336;DHT22;31365;48.858;8.530;2023-05-29T09:37:14;20.70;99.90
46336;DHT22;31365;48.858;8.530;2023-05-29T09:39:45;20.80;99.90
46336;DHT22;31365;48.858;8.530;2023-05-29T09:42:15;20.80;99.90
46336;DHT22;31365;48.858;8.530;2023-05-29T09:44:46;20.80;99.90
46336;DHT22;31365;48.858;8.530;2023-05-29T09:47:18;20.90;99.90
46336;DHT22;31365;48.858;8.530;2023-05-29T09:49:48;21.00;99.90
46336;DHT22;31365;48.858;8.530;2023-05-29T09:52:21;21.10;99.90
46336;DHT22;31365;48.858;8.530;2023-05-29T09:54:50;21.20;99.90
46336;DHT22;31365;48.858;8.530;2023-05-29T09:57:22;21.40;99.90
46336;DHT22;31365;48.858;8.530;2023-05-29T09:59:52;21.50;99.90
46336;DHT22;31365;48.858;8.530;2023-05-29T10:02:20;21.60;99.90
46336;DHT22;31365;48.858;8.530;2023-05-29T10:04:49;21.60;99.90
46336;DHT22;31365;48.858;8.530;2023-05-29T10:07:25;21.70;99.90
46336;DHT22;31365;48.858;8.530;2023-05-29T10:09:59;21.80;99.90
46336;DHT22;31365;48.858;8.530;2023-05-29T10:12:31;21.90;99.90
46336;DHT22;31365;48.858;8.530;2023-05-29T10:15:03;21.90;99.90
46336;DHT22;31365;48.858;8.530;2023-05-29T10:17:37;22.00;99.90
46336;DHT22;31365;48.858;8.530;2023-05-29T10:20:09;22.10;99.90
46336;DHT22;31365;48.858;8.530;2023-05-29T10:22:47;22.30;99.90
46336;DHT22;31365;48.858;8.530;2023-05-29T10:35:06;22.70;99.90
46336;DHT22;31365;48.858;8.530;2023-05-29T10:37:42;22.80;99.90
46336;DHT22;31365;48.858;8.530;2023-05-29T10:40:14;22.80;99.90
46336;DHT22;31365;48.858;8.530;2023-05-29T10:42:45;22.90;99.90
46336;DHT22;31365;48.858;8.530;2023-05-29T10:45:48;23.10;99.90
46336;DHT22;31365;48.858;8.530;2023-05-29T10:48:40;23.30;99.90
46336;DHT22;31365;48.858;8.530;2023-05-29T10:51:25;23.50;99.90
46336;DHT22;31365;48.858;8.530;2023-05-29T10:53:58;23.60;99.70
46336;DHT22;31365;48.858;8.530;2023-05-29T10:56:29;23.70;98.60
46336;DHT22;31365;48.858;8.530;2023-05-29T10:58:59;23.70;97.70
46336;DHT22;31365;48.858;8.530;2023-05-29T11:01:29;23.80;97.00
46336;DHT22;31365;48.858;8.530;2023-05-29T11:04:27;23.90;96.80
46336;DHT22;31365;48.858;8.530;2023-05-29T11:07:00;24.00;96.70
46336;DHT22;31365;48.858;8.530;2023-05-29T11:09:34;24.30;96.80
46336;DHT22;31365;48.858;8.530;2023-05-29T11:12:11;24.40;95.50
46336;DHT22;31365;48.858;8.530;2023-05-29T11:14:45;24.50;96.20
46336;DHT22;31365;48.858;8.530;2023-05-29T11:17:42;24.60;95.70
46336;DHT22;31365;48.858;8.530;2023-05-29T11:20:21;25.10;96.40
46336;DHT22;31365;48.858;8.530;2023-05-29T11:23:05;25.60;94.40
46336;DHT22;31365;48.858;8.530;2023-05-29T11:25:36;26.20;93.70
46336;DHT22;31365;48.858;8.530;2023-05-29T11:28:05;26.80;92.40
46336;DHT22;31365;48.858;8.530;2023-05-29T11:30:45;27.50;91.60
46336;DHT22;31365;48.858;8.530;2023-05-29T11:33:22;28.00;90.60
46336;DHT22;31365;48.858;8.530;2023-05-29T11:35:56;28.70;88.70
46336;DHT22;31365;48.858;8.530;2023-05-29T11:38:28;29.10;86.30
46336;DHT22;31365;48.858;8.530;2023-05-29T11:40:57;29.60;85.30
46336;DHT22;31365;48.858;8.530;2023-05-29T11:43:25;30.20;83.80
46336;DHT22;31365;48.858;8.530;2023-05-29T11:45:53;30.20;79.80
46336;DHT22;31365;48.858;8.530;2023-05-29T11:48:22;30.50;79.40
46336;DHT22;31365;48.858;8.530;2023-05-29T11:50:51;31.00;77.40
46336;DHT22;31365;48.858;8.530;2023-05-29T11:53:20;31.00;74.20
46336;DHT22;31365;48.858;8.530;2023-05-29T11:55:50;30.90;73.10
46336;DHT22;31365;48.858;8.530;2023-05-29T11:58:20;31.00;73.30
46336;DHT22;31365;48.858;8.530;2023-05-29T12:00:49;31.20;72.30
46336;DHT22;31365;48.858;8.530;2023-05-29T12:03:18;31.30;71.00
46336;DHT22;31365;48.858;8.530;2023-05-29T12:05:47;31.30;69.60
46336;DHT22;31365;48.858;8.530;2023-05-29T12:08:21;31.50;68.80
46336;DHT22;31365;48.858;8.530;2023-05-29T12:10:53;31.80;67.90
46336;DHT22;31365;48.858;8.530;2023-05-29T12:13:22;32.10;66.80
46336;DHT22;31365;48.858;8.530;2023-05-29T12:15:53;32.50;67.00
46336;DHT22;31365;48.858;8.530;2023-05-29T12:18:24;33.20;65.30
46336;DHT22;31365;48.858;8.530;2023-05-29T12:20:57;32.90;64.20
46336;DHT22;31365;48.858;8.530;2023-05-29T12:23:27;33.10;63.30
46336;DHT22;31365;48.858;8.530;2023-05-29T12:25:58;33.50;63.40
46336;DHT22;31365;48.858;8.530;2023-05-29T12:28:26;34.10;62.80
46336;DHT22;31365;48.858;8.530;2023-05-29T12:30:58;34.20;61.30
46336;DHT22;31365;48.858;8.530;2023-05-29T12:33:28;34.30;61.40
46336;DHT22;31365;48.858;8.530;2023-05-29T12:36:05;34.60;60.20
46336;DHT22;31365;48.858;8.530;2023-05-29T12:38:46;35.00;62.00
46336;DHT22;31365;48.858;8.530;2023-05-29T12:41:24;35.20;59.00
46336;DHT22;31365;48.858;8.530;2023-05-29T12:43:54;35.20;58.20
46336;DHT22;31365;48.858;8.530;2023-05-29T12:46:24;35.50;58.20
46336;DHT22;31365;48.858;8.530;2023-05-29T12:48:54;35.70;57.40
46336;DHT22;31365;48.858;8.530;2023-05-29T12:51:24;35.90;56.70
46336;DHT22;31365;48.858;8.530;2023-05-29T12:53:53;36.00;56.40
46336;DHT22;31365;48.858;8.530;2023-05-29T12:56:24;36.40;55.20
46336;DHT22;31365;48.858;8.530;2023-05-29T12:58:54;36.50;54.10
46336;DHT22;31365;48.858;8.530;2023-05-29T13:01:22;36.10;54.90
46336;DHT22;31365;48.858;8.530;2023-05-29T13:03:51;36.20;55.30
46336;DHT22;31365;48.858;8.530;2023-05-29T13:06:20;36.90;54.10
46336;DHT22;31365;48.858;8.530;2023-05-29T13:08:48;37.30;52.30
46336;DHT22;31365;48.858;8.530;2023-05-29T13:11:17;37.20;52.10
46336;DHT22;31365;48.858;8.530;2023-05-29T13:13:46;37.40;52.10
46336;DHT22;31365;48.858;8.530;2023-05-29T13:16:14;37.70;51.40
46336;DHT22;31365;48.858;8.530;2023-05-29T13:18:44;37.70;51.10
46336;DHT22;31365;48.858;8.530;2023-05-29T13:21:12;37.80;51.10
46336;DHT22;31365;48.858;8.530;2023-05-29T13:23:40;38.10;49.80
46336;DHT22;31365;48.858;8.530;2023-05-29T13:26:08;38.20;49.30
46336;DHT22;31365;48.858;8.530;2023-05-29T13:28:37;38.40;48.60
46336;DHT22;31365;48.858;8.530;2023-05-29T13:31:06;38.20;48.50
46336;DHT22;31365;48.858;8.530;2023-05-29T13:33:36;38.70;48.40
46336;DHT22;31365;48.858;8.530;2023-05-29T13:36:04;38.90;47.40
46336;DHT22;31365;48.858;8.530;2023-05-29T13:38:34;39.40;47.50
46336;DHT22;31365;48.858;8.530;2023-05-29T13:41:02;39.20;46.80
46336;DHT22;31365;48.858;8.530;2023-05-29T13:43:30;39.20;46.70
46336;DHT22;31365;48.858;8.530;2023-05-29T13:46:11;39.50;46.80
46336;DHT22;31365;48.858;8.530;2023-05-29T13:48:40;39.40;46.40
46336;DHT22;31365;48.858;8.530;2023-05-29T13:51:08;39.70;46.80
46336;DHT22;31365;48.858;8.530;2023-05-29T13:53:37;40.00;46.50
46336;DHT22;31365;48.858;8.530;2023-05-29T13:56:05;40.30;45.30
46336;DHT22;31365;48.858;8.530;2023-05-29T13:58:34;40.30;45.10
46336;DHT22;31365;48.858;8.530;2023-05-29T14:01:02;39.90;44.80
46336;DHT22;31365;48.858;8.530;2023-05-29T14:03:31;40.10;45.80
46336;DHT22;31365;48.858;8.530;2023-05-29T14:06:00;40.00;45.30
46336;DHT22;31365;48.858;8.530;2023-05-29T14:08:29;40.20;45.70
46336;DHT22;31365;48.858;8.530;2023-05-29T14:10:57;40.50;45.50
46336;DHT22;31365;48.858;8.530;2023-05-29T14:13:25;40.40;44.70
46336;DHT22;31365;48.858;8.530;2023-05-29T14:15:54;40.50;44.20
46336;DHT22;31365;48.858;8.530;2023-05-29T14:18:23;39.60;44.70
46336;DHT22;31365;48.858;8.530;2023-05-29T14:20:53;39.00;45.30
46336;DHT22;31365;48.858;8.530;2023-05-29T14:23:21;39.10;45.20
46336;DHT22;31365;48.858;8.530;2023-05-29T14:25:49;39.20;45.60
46336;DHT22;31365;48.858;8.530;2023-05-29T14:28:19;39.90;45.50
46336;DHT22;31365;48.858;8.530;2023-05-29T14:30:47;39.90;45.10
46336;DHT22;31365;48.858;8.530;2023-05-29T14:33:15;39.70;44.50
46336;DHT22;31365;48.858;8.530;2023-05-29T14:35:43;39.30;44.40
46336;DHT22;31365;48.858;8.530;2023-05-29T14:38:12;39.40;44.30
46336;DHT22;31365;48.858;8.530;2023-05-29T14:40:41;39.70;44.60
46336;DHT22;31365;48.858;8.530;2023-05-29T14:43:12;40.40;44.20
46336;DHT22;31365;48.858;8.530;2023-05-29T14:45:41;40.30;44.60
46336;DHT22;31365;48.858;8.530;2023-05-29T14:48:09;40.10;45.00
46336;DHT22;31365;48.858;8.530;2023-05-29T14:50:38;40.30;44.60
46336;DHT22;31365;48.858;8.530;2023-05-29T14:53:06;40.30;44.10
46336;DHT22;31365;48.858;8.530;2023-05-29T14:55:36;39.80;43.20
46336;DHT22;31365;48.858;8.530;2023-05-29T14:58:05;39.80;43.20
46336;DHT22;31365;48.858;8.530;2023-05-29T15:00:33;40.20;43.80
46336;DHT22;31365;48.858;8.530;2023-05-29T15:03:01;39.80;43.90
46336;DHT22;31365;48.858;8.530;2023-05-29T15:05:29;39.80;43.70
46336;DHT22;31365;48.858;8.530;2023-05-29T15:07:58;39.60;43.90
46336;DHT22;31365;48.858;8.530;2023-05-29T15:10:27;38.80;44.80
46336;DHT22;31365;48.858;8.530;2023-05-29T15:12:56;38.20;45.70
46336;DHT22;31365;48.858;8.530;2023-05-29T15:15:24;37.20;46.20
46336;DHT22;31365;48.858;8.530;2023-05-29T15:18:02;35.70;46.80
46336;DHT22;31365;48.858;8.530;2023-05-29T15:20:31;34.20;47.70
46336;DHT22;31365;48.858;8.530;2023-05-29T15:22:59;33.10;49.00
46336;DHT22;31365;48.858;8.530;2023-05-29T15:25:27;32.20;50.10
46336;DHT22;31365;48.858;8.530;2023-05-29T15:27:57;31.20;50.50
46336;DHT22;31365;48.858;8.530;2023-05-29T15:30:25;30.70;51.20
46336;DHT22;31365;48.858;8.530;2023-05-29T15:32:54;30.30;51.60
46336;DHT22;31365;48.858;8.530;2023-05-29T15:35:22;29.90;52.40
46336;DHT22;31365;48.858;8.530;2023-05-29T15:37:51;29.70;52.40
46336;DHT22;31365;48.858;8.530;2023-05-29T15:40:19;29.40;52.90
46336;DHT22;31365;48.858;8.530;2023-05-29T15:42:47;29.00;53.00
46336;DHT22;31365;48.858;8.530;2023-05-29T15:45:16;28.70;54.00
46336;DHT22;31365;48.858;8.530;2023-05-29T15:47:46;28.60;54.60
46336;DHT22;31365;48.858;8.530;2023-05-29T15:50:14;28.60;54.50
46336;DHT22;31365;48.858;8.530;2023-05-29T15:52:42;28.50;54.00
46336;DHT22;31365;48.858;8.530;2023-05-29T15:55:21;28.30;54.00
46336;DHT22;31365;48.858;8.530;2023-05-29T15:57:50;28.20;54.70
46336;DHT22;31365;48.858;8.530;2023-05-29T16:00:19;28.10;54.50